Washington Heights, Pennsylvania
Current Conditions -  °F | °C
As of 8:56 PM on Saturday 22 Nov 2014 (Local Time) from KCXY Reporting Station
Broken Clouds Broken Clouds  
Wind Chill: 32°   Ceiling: 11000
Heat Index: 32°   Visibility: 10mi
Dew Point: 21°   Wind: 0mph
Humidity: 64%   Direction: NA
Pressure: 30.23"   Gusts: NA
Location:  40.2478°N, 76.9006°W
Report Text: KCXY 230156Z AUTO 00000KT 10SM BKN110 00/M06 A3023 RMK AO2 SLP243 T00001061
Loading
Personal Weather Stations






























Interactive Weather Map New forecast layout! Learn more

10-Day Weather Forecast

Advertisements
Track Severe Weather on mobile